TDR9000 LLBG-LDZA
Flight info
| Callsign | TDR9000 |
|---|---|
| Flight time | N/A |
| Altitude | 36000 |
| Route | SUVAS N128 OTHON UN128 RDS UL609 MES UG18 FSK UL608 DISOR DCT LONTA UL608 DOLEV DCT TIVNU DCT TEBLI |
| Aircraft | A320/M-SDE3FGHIRWY/LB1 |
Departure
| Time | 2026-04-30 13:00 |
|---|---|
| Airport | Ben Gurion International Airport (LLBG) |
Arrival
| Time | N/A |
|---|---|
| Airport | Zagreb Franjo Tuđman International Airport (LDZA) |
| Time | Latitude | Longitude | Altitude | Speed | Heading |
|---|---|---|---|---|---|
| 2026-04-30 12:25 | 31.99639 | 34.89137 | 140 ft | 0 kts | 111° |
| 2026-04-30 12:54 | 31.99643 | 34.89125 | 140 ft | 4 kts | 109° |
| 2026-04-30 12:55 | 31.99650 | 34.89095 | 140 ft | 4 kts | 99° |
| 2026-04-30 12:55 | 31.99652 | 34.89064 | 140 ft | 4 kts | 74° |
| 2026-04-30 12:55 | 31.99641 | 34.89044 | 140 ft | 1 kts | 19° |
| 2026-04-30 12:55 | 31.99637 | 34.89043 | 140 ft | 0 kts | 19° |
| 2026-04-30 12:58 | 31.99668 | 34.89055 | 140 ft | 10 kts | 17° |
| 2026-04-30 12:58 | 31.99741 | 34.89082 | 140 ft | 12 kts | 18° |
| 2026-04-30 12:58 | 31.99823 | 34.89115 | 139 ft | 13 kts | 18° |
| 2026-04-30 12:58 | 31.99915 | 34.89139 | 139 ft | 14 kts | 349° |
| 2026-04-30 12:59 | 32.00012 | 34.89114 | 138 ft | 15 kts | 7° |
| 2026-04-30 12:59 | 32.00120 | 34.89127 | 137 ft | 16 kts | 355° |
| 2026-04-30 12:59 | 32.00161 | 34.89095 | 137 ft | 0 kts | 302° |
| 2026-04-30 12:59 | 32.00170 | 34.89078 | 138 ft | 10 kts | 302° |
| 2026-04-30 13:00 | 32.00326 | 34.88780 | 139 ft | 77 kts | 301° |
| 2026-04-30 13:00 | 32.00713 | 34.88038 | 123 ft | 134 kts | 301° |
| 2026-04-30 13:00 | 32.01249 | 34.87016 | 483 ft | 147 kts | 304° |
| 2026-04-30 13:00 | 32.01549 | 34.85866 | 1060 ft | 154 kts | 268° |
| 2026-04-30 13:01 | 32.01412 | 34.84607 | 1722 ft | 155 kts | 268° |
| 2026-04-30 13:01 | 32.01264 | 34.83326 | 2105 ft | 170 kts | 266° |
| 2026-04-30 13:01 | 32.01089 | 34.81844 | 2417 ft | 194 kts | 265° |
| 2026-04-30 13:01 | 32.00892 | 34.80187 | 2756 ft | 213 kts | 264° |
| 2026-04-30 13:02 | 32.00681 | 34.78398 | 3235 ft | 230 kts | 263° |
| 2026-04-30 13:02 | 32.00455 | 34.76433 | 3595 ft | 253 kts | 262° |
| 2026-04-30 13:02 | 32.00224 | 34.74327 | 4226 ft | 264 kts | 263° |
| 2026-04-30 13:02 | 32.00354 | 34.72145 | 4974 ft | 274 kts | 283° |
| 2026-04-30 13:03 | 32.00911 | 34.69977 | 5710 ft | 279 kts | 284° |
| 2026-04-30 13:03 | 32.01503 | 34.67788 | 6485 ft | 282 kts | 284° |
| 2026-04-30 13:03 | 32.02099 | 34.65581 | 7228 ft | 284 kts | 285° |
| 2026-04-30 13:03 | 32.02628 | 34.63324 | 7873 ft | 285 kts | 274° |
| 2026-04-30 13:04 | 32.02831 | 34.60997 | 8589 ft | 287 kts | 277° |
| 2026-04-30 13:04 | 32.03269 | 34.58686 | 9349 ft | 290 kts | 282° |
| 2026-04-30 13:04 | 32.03808 | 34.56380 | 10083 ft | 293 kts | 283° |
| 2026-04-30 13:04 | 32.04380 | 34.54066 | 10758 ft | 295 kts | 284° |
| 2026-04-30 13:05 | 32.04961 | 34.51736 | 11428 ft | 298 kts | 284° |
| 2026-04-30 13:05 | 32.05539 | 34.49379 | 12085 ft | 300 kts | 283° |
| 2026-04-30 13:05 | 32.06097 | 34.47031 | 12745 ft | 303 kts | 283° |
| 2026-04-30 13:06 | 32.07208 | 34.42201 | 14031 ft | 308 kts | 283° |
| 2026-04-30 13:06 | 32.07766 | 34.39754 | 14627 ft | 309 kts | 283° |
| 2026-04-30 13:06 | 32.08325 | 34.37298 | 15171 ft | 311 kts | 283° |
| 2026-04-30 13:06 | 32.08887 | 34.34825 | 15783 ft | 313 kts | 283° |
| 2026-04-30 13:07 | 32.09449 | 34.32343 | 16368 ft | 315 kts | 283° |
| 2026-04-30 13:07 | 32.10016 | 34.29840 | 16962 ft | 317 kts | 283° |
| 2026-04-30 13:07 | 32.10589 | 34.27329 | 17528 ft | 318 kts | 283° |
| 2026-04-30 13:07 | 32.11163 | 34.24795 | 18107 ft | 320 kts | 283° |
| 2026-04-30 13:08 | 32.11743 | 34.22246 | 18618 ft | 323 kts | 283° |
| 2026-04-30 13:08 | 32.12325 | 34.19687 | 19128 ft | 324 kts | 283° |
| 2026-04-30 13:08 | 32.12905 | 34.17123 | 19658 ft | 324 kts | 283° |
| 2026-04-30 13:08 | 32.13486 | 34.14545 | 20116 ft | 328 kts | 283° |
| 2026-04-30 13:09 | 32.14087 | 34.11879 | 20229 ft | 343 kts | 283° |
| 2026-04-30 13:09 | 32.14713 | 34.09106 | 20358 ft | 356 kts | 283° |
| 2026-04-30 13:09 | 32.15364 | 34.06229 | 20489 ft | 369 kts | 283° |
| 2026-04-30 13:09 | 32.16036 | 34.03262 | 20724 ft | 378 kts | 284° |
| 2026-04-30 13:10 | 32.16824 | 34.00276 | 21157 ft | 383 kts | 291° |
| 2026-04-30 13:10 | 32.18043 | 33.97473 | 21650 ft | 386 kts | 301° |
| 2026-04-30 13:10 | 32.19591 | 33.94870 | 22144 ft | 388 kts | 303° |
| 2026-04-30 13:10 | 32.21161 | 33.92273 | 22619 ft | 388 kts | 303° |
| 2026-04-30 13:11 | 32.22730 | 33.89667 | 23078 ft | 390 kts | 303° |
| 2026-04-30 13:11 | 32.24291 | 33.87079 | 23554 ft | 391 kts | 303° |
| 2026-04-30 13:11 | 32.25871 | 33.84457 | 23945 ft | 392 kts | 303° |
| 2026-04-30 13:11 | 32.27456 | 33.81829 | 24326 ft | 393 kts | 303° |
| 2026-04-30 13:12 | 32.29045 | 33.79192 | 24680 ft | 394 kts | 303° |
| 2026-04-30 13:12 | 32.30634 | 33.76543 | 25022 ft | 396 kts | 302° |
| 2026-04-30 13:12 | 32.32225 | 33.73886 | 25364 ft | 397 kts | 302° |
| 2026-04-30 13:13 | 32.35426 | 33.68548 | 26037 ft | 399 kts | 302° |
| 2026-04-30 13:13 | 32.37036 | 33.65862 | 26369 ft | 400 kts | 302° |
| 2026-04-30 13:13 | 32.40260 | 33.60463 | 27013 ft | 403 kts | 302° |
| 2026-04-30 13:14 | 32.41875 | 33.57758 | 27313 ft | 403 kts | 302° |
| 2026-04-30 13:14 | 32.43497 | 33.55045 | 27600 ft | 405 kts | 302° |
| 2026-04-30 13:14 | 32.46207 | 33.50512 | 28110 ft | 407 kts | 302° |
| 2026-04-30 13:15 | 32.47846 | 33.47769 | 28408 ft | 408 kts | 302° |
| 2026-04-30 13:15 | 32.51128 | 33.42263 | 28953 ft | 410 kts | 302° |
| 2026-04-30 13:15 | 32.52772 | 33.39501 | 29214 ft | 411 kts | 302° |
| 2026-04-30 13:16 | 32.54421 | 33.36727 | 29470 ft | 412 kts | 302° |
| 2026-04-30 13:16 | 32.56073 | 33.33943 | 29713 ft | 413 kts | 302° |
| 2026-04-30 13:16 | 32.57728 | 33.31145 | 29963 ft | 414 kts | 302° |
| 2026-04-30 13:17 | 32.61046 | 33.25539 | 30367 ft | 416 kts | 302° |
| 2026-04-30 13:17 | 32.62707 | 33.22734 | 30632 ft | 415 kts | 302° |
| 2026-04-30 13:17 | 32.66019 | 33.17144 | 31142 ft | 413 kts | 302° |
| 2026-04-30 13:18 | 32.67671 | 33.14353 | 31391 ft | 413 kts | 302° |
| 2026-04-30 13:18 | 32.70962 | 33.08774 | 31893 ft | 411 kts | 302° |
| 2026-04-30 13:18 | 32.72601 | 33.05994 | 32146 ft | 411 kts | 302° |
| 2026-04-30 13:19 | 32.74216 | 33.03255 | 32387 ft | 410 kts | 302° |
| 2026-04-30 13:19 | 32.75850 | 33.00482 | 32628 ft | 409 kts | 302° |
| 2026-04-30 13:19 | 32.77479 | 32.97710 | 32881 ft | 409 kts | 302° |
| 2026-04-30 13:19 | 32.79106 | 32.94945 | 33128 ft | 408 kts | 302° |
| 2026-04-30 13:20 | 32.80732 | 32.92178 | 33368 ft | 407 kts | 302° |
| 2026-04-30 13:20 | 32.82349 | 32.89420 | 33620 ft | 407 kts | 302° |
| 2026-04-30 13:20 | 32.83963 | 32.86667 | 33866 ft | 406 kts | 302° |
| 2026-04-30 13:20 | 32.85575 | 32.83913 | 34101 ft | 405 kts | 302° |
| 2026-04-30 13:21 | 32.87184 | 32.81164 | 34314 ft | 404 kts | 302° |
| 2026-04-30 13:21 | 32.88791 | 32.78422 | 34514 ft | 404 kts | 302° |
| 2026-04-30 13:21 | 32.90401 | 32.75678 | 34708 ft | 404 kts | 302° |
| 2026-04-30 13:22 | 32.93605 | 32.70202 | 35065 ft | 403 kts | 302° |
| 2026-04-30 13:22 | 32.95199 | 32.67462 | 35237 ft | 403 kts | 302° |
| 2026-04-30 13:22 | 32.98365 | 32.62022 | 35566 ft | 402 kts | 302° |
| 2026-04-30 13:23 | 32.99960 | 32.59289 | 35710 ft | 402 kts | 302° |
| 2026-04-30 13:23 | 33.03142 | 32.53820 | 36001 ft | 402 kts | 302° |
| 2026-04-30 13:24 | 33.09585 | 32.42713 | 36027 ft | 412 kts | 302° |
| 2026-04-30 13:25 | 33.16143 | 32.31369 | 36031 ft | 418 kts | 302° |
| 2026-04-30 13:26 | 33.24419 | 32.17025 | 36036 ft | 420 kts | 302° |
| 2026-04-30 13:28 | 33.32684 | 32.02649 | 36044 ft | 421 kts | 302° |
| 2026-04-30 13:28 | 33.37636 | 31.93983 | 36049 ft | 421 kts | 302° |
| 2026-04-30 13:29 | 33.44240 | 31.82420 | 36047 ft | 421 kts | 302° |
| 2026-04-30 13:31 | 33.52479 | 31.67947 | 36050 ft | 420 kts | 302° |
| 2026-04-30 13:32 | 33.60672 | 31.53501 | 36042 ft | 420 kts | 302° |
| 2026-04-30 13:33 | 33.67215 | 31.41902 | 36042 ft | 420 kts | 302° |
| 2026-04-30 13:34 | 33.72121 | 31.33191 | 36048 ft | 420 kts | 302° |
| 2026-04-30 13:35 | 33.78647 | 31.21565 | 36046 ft | 420 kts | 302° |
| 2026-04-30 13:36 | 33.85163 | 31.09916 | 36046 ft | 420 kts | 302° |
| 2026-04-30 13:36 | 33.90031 | 31.01212 | 36046 ft | 419 kts | 302° |
| 2026-04-30 13:37 | 33.94897 | 30.92473 | 36042 ft | 419 kts | 302° |
| 2026-04-30 13:38 | 33.99759 | 30.83718 | 36039 ft | 419 kts | 302° |
| 2026-04-30 13:39 | 34.06234 | 30.72028 | 36036 ft | 419 kts | 302° |
| 2026-04-30 13:40 | 34.11084 | 30.63254 | 36036 ft | 419 kts | 302° |
| 2026-04-30 13:40 | 34.14308 | 30.57394 | 36033 ft | 419 kts | 302° |
| 2026-04-30 13:41 | 34.17513 | 30.51562 | 36035 ft | 419 kts | 302° |
| 2026-04-30 13:41 | 34.20737 | 30.45699 | 36031 ft | 419 kts | 302° |
| 2026-04-30 13:42 | 34.23963 | 30.39825 | 36026 ft | 419 kts | 302° |
| 2026-04-30 13:42 | 34.28800 | 30.31007 | 36026 ft | 419 kts | 302° |
| 2026-04-30 13:43 | 34.32014 | 30.25117 | 36036 ft | 420 kts | 302° |
| 2026-04-30 13:43 | 34.35224 | 30.19218 | 36029 ft | 420 kts | 302° |
| 2026-04-30 13:44 | 34.38730 | 30.13582 | 36034 ft | 422 kts | 316° |
| 2026-04-30 13:44 | 34.43224 | 30.08970 | 36026 ft | 423 kts | 317° |
| 2026-04-30 13:45 | 34.49992 | 30.02079 | 36019 ft | 424 kts | 317° |
| 2026-04-30 13:46 | 34.54473 | 29.97495 | 36019 ft | 424 kts | 317° |
| 2026-04-30 13:46 | 34.58980 | 29.92876 | 36017 ft | 424 kts | 317° |
| 2026-04-30 13:47 | 34.63499 | 29.88251 | 36022 ft | 425 kts | 317° |
| 2026-04-30 13:47 | 34.68015 | 29.83616 | 36022 ft | 425 kts | 317° |
| 2026-04-30 13:48 | 34.72531 | 29.78965 | 36026 ft | 425 kts | 316° |
| 2026-04-30 13:48 | 34.77046 | 29.74317 | 36030 ft | 425 kts | 316° |
| 2026-04-30 13:49 | 34.81529 | 29.69693 | 36026 ft | 425 kts | 316° |
| 2026-04-30 13:49 | 34.86041 | 29.65035 | 36029 ft | 425 kts | 316° |
| 2026-04-30 13:50 | 34.90549 | 29.60375 | 36028 ft | 425 kts | 316° |
| 2026-04-30 13:50 | 34.97319 | 29.53354 | 36028 ft | 425 kts | 316° |
| 2026-04-30 13:51 | 35.01826 | 29.48675 | 36027 ft | 425 kts | 316° |
| 2026-04-30 13:51 | 35.06338 | 29.43989 | 36026 ft | 426 kts | 316° |
| 2026-04-30 13:52 | 35.10817 | 29.39324 | 36025 ft | 426 kts | 316° |
| 2026-04-30 13:52 | 35.15314 | 29.34623 | 36027 ft | 426 kts | 316° |
| 2026-04-30 13:53 | 35.19820 | 29.29908 | 36023 ft | 426 kts | 316° |
| 2026-04-30 13:53 | 35.24313 | 29.25204 | 36024 ft | 426 kts | 316° |
| 2026-04-30 13:54 | 35.28829 | 29.20491 | 36026 ft | 426 kts | 316° |
| 2026-04-30 13:54 | 35.33335 | 29.15772 | 36027 ft | 426 kts | 316° |
| 2026-04-30 13:55 | 35.37753 | 29.11127 | 36028 ft | 427 kts | 316° |
| 2026-04-30 13:55 | 35.42258 | 29.06381 | 36031 ft | 427 kts | 316° |
| 2026-04-30 13:56 | 35.46765 | 29.01628 | 36031 ft | 427 kts | 316° |
| 2026-04-30 13:56 | 35.51277 | 28.96877 | 36028 ft | 427 kts | 316° |
| 2026-04-30 13:57 | 35.55756 | 28.92138 | 36028 ft | 427 kts | 316° |
| 2026-04-30 13:57 | 35.60264 | 28.87361 | 36028 ft | 428 kts | 316° |
| 2026-04-30 13:58 | 35.67024 | 28.80182 | 36030 ft | 428 kts | 316° |
| 2026-04-30 13:59 | 35.71535 | 28.75381 | 36027 ft | 428 kts | 316° |
| 2026-04-30 13:59 | 35.76007 | 28.70616 | 36032 ft | 428 kts | 316° |
| 2026-04-30 14:00 | 35.80509 | 28.65808 | 36032 ft | 428 kts | 316° |
| 2026-04-30 14:00 | 35.87266 | 28.58596 | 36029 ft | 428 kts | 316° |
| 2026-04-30 14:01 | 35.91772 | 28.53785 | 36031 ft | 428 kts | 316° |
| 2026-04-30 14:01 | 35.96276 | 28.48959 | 36032 ft | 429 kts | 316° |
| 2026-04-30 14:02 | 36.00775 | 28.44125 | 36033 ft | 429 kts | 315° |
| 2026-04-30 14:02 | 36.05273 | 28.39281 | 36029 ft | 429 kts | 316° |
| 2026-04-30 14:03 | 36.09771 | 28.34436 | 36019 ft | 429 kts | 315° |
| 2026-04-30 14:03 | 36.14174 | 28.29686 | 36013 ft | 429 kts | 315° |
| 2026-04-30 14:04 | 36.18673 | 28.24824 | 36006 ft | 429 kts | 315° |
| 2026-04-30 14:04 | 36.23175 | 28.19948 | 35999 ft | 429 kts | 315° |
| 2026-04-30 14:05 | 36.26919 | 28.15893 | 35993 ft | 430 kts | 315° |
| 2026-04-30 14:05 | 36.31426 | 28.11010 | 35991 ft | 430 kts | 315° |
| 2026-04-30 14:06 | 36.38106 | 28.03581 | 35998 ft | 430 kts | 314° |
| 2026-04-30 14:07 | 36.44617 | 27.95970 | 35987 ft | 429 kts | 314° |
| 2026-04-30 14:08 | 36.51177 | 27.88350 | 35998 ft | 430 kts | 314° |
| 2026-04-30 14:08 | 36.57767 | 27.80726 | 36001 ft | 431 kts | 314° |
| 2026-04-30 14:09 | 36.62126 | 27.75673 | 36006 ft | 431 kts | 314° |
| 2026-04-30 14:10 | 36.68690 | 27.68026 | 36008 ft | 430 kts | 314° |
| 2026-04-30 14:10 | 36.73060 | 27.62914 | 36008 ft | 430 kts | 314° |
| 2026-04-30 14:11 | 36.77420 | 27.57809 | 36007 ft | 430 kts | 314° |
| 2026-04-30 14:11 | 36.81789 | 27.52697 | 36002 ft | 430 kts | 314° |
| 2026-04-30 14:12 | 36.86156 | 27.47583 | 36007 ft | 431 kts | 313° |
| 2026-04-30 14:12 | 36.90528 | 27.42443 | 36012 ft | 432 kts | 313° |
| 2026-04-30 14:13 | 36.94903 | 27.37286 | 36016 ft | 432 kts | 313° |
| 2026-04-30 14:13 | 36.99277 | 27.32128 | 36018 ft | 432 kts | 313° |
| 2026-04-30 14:14 | 37.03657 | 27.26962 | 36023 ft | 432 kts | 313° |
| 2026-04-30 14:14 | 37.08002 | 27.21818 | 36023 ft | 432 kts | 313° |
| 2026-04-30 14:15 | 37.12367 | 27.16629 | 36022 ft | 432 kts | 313° |
| 2026-04-30 14:15 | 37.16733 | 27.11456 | 36026 ft | 432 kts | 313° |
| 2026-04-30 14:16 | 37.21088 | 27.06293 | 36008 ft | 431 kts | 313° |
| 2026-04-30 14:16 | 37.25436 | 27.01117 | 36009 ft | 431 kts | 313° |
| 2026-04-30 14:17 | 37.29778 | 26.95928 | 36017 ft | 431 kts | 313° |
| 2026-04-30 14:17 | 37.34121 | 26.90739 | 36009 ft | 431 kts | 313° |
| 2026-04-30 14:18 | 37.38444 | 26.85572 | 36021 ft | 431 kts | 313° |
| 2026-04-30 14:18 | 37.45138 | 26.77996 | 36018 ft | 432 kts | 316° |
| 2026-04-30 14:19 | 37.52049 | 26.70709 | 36007 ft | 432 kts | 316° |
| 2026-04-30 14:20 | 37.56629 | 26.65802 | 36005 ft | 432 kts | 315° |
| 2026-04-30 14:20 | 37.63453 | 26.58367 | 36009 ft | 432 kts | 315° |
| 2026-04-30 14:21 | 37.67999 | 26.53395 | 36012 ft | 432 kts | 315° |
| 2026-04-30 14:22 | 37.74812 | 26.45998 | 36024 ft | 432 kts | 315° |
| 2026-04-30 14:22 | 37.81661 | 26.38551 | 36023 ft | 432 kts | 315° |
| 2026-04-30 14:23 | 37.90765 | 26.28602 | 36019 ft | 432 kts | 315° |
| 2026-04-30 14:24 | 37.97575 | 26.21117 | 36017 ft | 432 kts | 315° |
| 2026-04-30 14:25 | 38.06640 | 26.11125 | 36018 ft | 432 kts | 315° |
| 2026-04-30 14:26 | 38.13414 | 26.03639 | 36021 ft | 432 kts | 315° |
| 2026-04-30 14:27 | 38.20209 | 25.96106 | 36021 ft | 432 kts | 315° |
| 2026-04-30 14:27 | 38.24724 | 25.91072 | 36020 ft | 432 kts | 315° |
| 2026-04-30 14:28 | 38.31822 | 25.83918 | 36019 ft | 434 kts | 319° |
| 2026-04-30 14:28 | 38.36666 | 25.79362 | 36023 ft | 435 kts | 319° |
| 2026-04-30 14:29 | 38.45479 | 25.70818 | 36023 ft | 434 kts | 318° |
| 2026-04-30 14:31 | 38.58276 | 25.58257 | 36024 ft | 435 kts | 318° |
| 2026-04-30 14:31 | 38.65442 | 25.51210 | 36015 ft | 434 kts | 318° |
| 2026-04-30 14:32 | 38.72621 | 25.44131 | 36022 ft | 434 kts | 318° |
| 2026-04-30 14:33 | 38.77409 | 25.39404 | 36024 ft | 435 kts | 318° |
| 2026-04-30 14:33 | 38.84607 | 25.32286 | 36024 ft | 435 kts | 318° |
| 2026-04-30 14:34 | 38.89391 | 25.27525 | 36029 ft | 435 kts | 318° |
| 2026-04-30 14:34 | 38.94190 | 25.22759 | 36028 ft | 435 kts | 318° |
| 2026-04-30 14:35 | 39.01335 | 25.15642 | 36031 ft | 435 kts | 318° |
| 2026-04-30 14:36 | 39.06116 | 25.10864 | 36032 ft | 435 kts | 318° |
| 2026-04-30 14:36 | 39.10895 | 25.06091 | 36032 ft | 435 kts | 318° |
| 2026-04-30 14:37 | 39.15662 | 25.01319 | 36028 ft | 434 kts | 318° |
| 2026-04-30 14:37 | 39.20439 | 24.96520 | 36033 ft | 434 kts | 318° |
| 2026-04-30 14:38 | 39.25206 | 24.91728 | 36035 ft | 434 kts | 318° |
| 2026-04-30 14:38 | 39.29976 | 24.86932 | 36034 ft | 434 kts | 318° |
| 2026-04-30 14:39 | 39.34741 | 24.82129 | 36037 ft | 434 kts | 318° |
| 2026-04-30 14:39 | 39.39501 | 24.77311 | 36040 ft | 434 kts | 318° |
| 2026-04-30 14:40 | 39.46619 | 24.70103 | 36040 ft | 435 kts | 318° |
| 2026-04-30 14:40 | 39.51385 | 24.65261 | 36042 ft | 435 kts | 318° |
| 2026-04-30 14:41 | 39.56146 | 24.60419 | 36047 ft | 435 kts | 318° |
| 2026-04-30 14:41 | 39.60903 | 24.55578 | 36049 ft | 435 kts | 318° |
| 2026-04-30 14:42 | 39.65656 | 24.50724 | 36049 ft | 434 kts | 318° |
| 2026-04-30 14:42 | 39.70366 | 24.45903 | 36051 ft | 434 kts | 318° |
| 2026-04-30 14:43 | 39.75107 | 24.41047 | 36049 ft | 434 kts | 318° |
| 2026-04-30 14:43 | 39.79842 | 24.36193 | 36052 ft | 433 kts | 317° |
| 2026-04-30 14:44 | 39.84566 | 24.31334 | 36050 ft | 433 kts | 317° |
| 2026-04-30 14:44 | 39.89283 | 24.26472 | 36053 ft | 432 kts | 317° |
| 2026-04-30 14:45 | 39.93999 | 24.21607 | 36050 ft | 432 kts | 317° |
| 2026-04-30 14:45 | 39.98696 | 24.16755 | 36052 ft | 432 kts | 317° |
| 2026-04-30 14:46 | 40.03406 | 24.11875 | 36056 ft | 432 kts | 317° |
| 2026-04-30 14:46 | 40.07307 | 24.07820 | 36055 ft | 431 kts | 317° |
| 2026-04-30 14:47 | 40.12794 | 24.02120 | 36057 ft | 431 kts | 317° |
| 2026-04-30 14:47 | 40.17477 | 23.97245 | 36058 ft | 430 kts | 317° |
| 2026-04-30 14:48 | 40.22152 | 23.92370 | 36059 ft | 429 kts | 317° |
| 2026-04-30 14:48 | 40.26811 | 23.87505 | 36058 ft | 428 kts | 317° |
| 2026-04-30 14:49 | 40.31453 | 23.82647 | 36066 ft | 428 kts | 316° |
| 2026-04-30 14:49 | 40.36091 | 23.77770 | 36063 ft | 428 kts | 316° |
| 2026-04-30 14:50 | 40.42258 | 23.71279 | 36066 ft | 427 kts | 316° |
| 2026-04-30 14:51 | 40.49205 | 23.63968 | 36068 ft | 426 kts | 316° |
| 2026-04-30 14:52 | 40.56115 | 23.56657 | 36057 ft | 425 kts | 316° |
| 2026-04-30 14:52 | 40.63013 | 23.49345 | 36052 ft | 424 kts | 316° |
| 2026-04-30 14:53 | 40.69894 | 23.42039 | 36054 ft | 423 kts | 316° |
| 2026-04-30 14:54 | 40.79052 | 23.32276 | 36065 ft | 423 kts | 316° |
| 2026-04-30 14:55 | 40.85870 | 23.24986 | 36074 ft | 422 kts | 316° |
| 2026-04-30 14:56 | 40.94967 | 23.15231 | 36073 ft | 420 kts | 315° |
| 2026-04-30 14:57 | 41.01765 | 23.07913 | 36081 ft | 419 kts | 315° |
| 2026-04-30 14:58 | 41.10617 | 22.97995 | 36093 ft | 413 kts | 306° |
| 2026-04-30 14:58 | 41.16167 | 22.89297 | 36098 ft | 412 kts | 306° |
| 2026-04-30 15:00 | 41.25391 | 22.74801 | 36112 ft | 411 kts | 306° |
| 2026-04-30 15:01 | 41.33116 | 22.63530 | 36134 ft | 413 kts | 308° |
| 2026-04-30 15:01 | 41.38934 | 22.55078 | 36161 ft | 412 kts | 307° |
| 2026-04-30 15:02 | 41.42753 | 22.49448 | 36171 ft | 412 kts | 307° |
| 2026-04-30 15:03 | 41.52374 | 22.35247 | 36195 ft | 413 kts | 307° |
| 2026-04-30 15:04 | 41.62004 | 22.20978 | 36211 ft | 413 kts | 307° |
| 2026-04-30 15:06 | 41.71610 | 22.06678 | 36228 ft | 413 kts | 307° |
| 2026-04-30 15:07 | 41.79275 | 21.95206 | 36248 ft | 413 kts | 307° |
| 2026-04-30 15:08 | 41.86930 | 21.83714 | 36280 ft | 413 kts | 307° |
| 2026-04-30 15:09 | 41.96463 | 21.69343 | 36298 ft | 413 kts | 307° |
| 2026-04-30 15:10 | 42.04112 | 21.57765 | 36296 ft | 414 kts | 307° |
| 2026-04-30 15:11 | 42.15556 | 21.40327 | 36285 ft | 415 kts | 307° |
| 2026-04-30 15:13 | 42.24936 | 21.25507 | 36284 ft | 416 kts | 306° |
| 2026-04-30 15:14 | 42.38035 | 21.04621 | 36281 ft | 418 kts | 306° |
| 2026-04-30 15:17 | 42.54937 | 20.77452 | 36276 ft | 420 kts | 306° |
| 2026-04-30 15:19 | 42.69990 | 20.53037 | 36274 ft | 421 kts | 306° |